TERMINUS DAM (TRM)

Elevation: 752' · KAWEAH R basin · Operator: US Army Corps of Engineers

Provisional data, subject to change.
Query executed Saturday at 22:28:51   clock

Select a sensor type for a plot of data.
Note: Reservoir Flows are daily averages.

Earlier

Date RES ELE    STORAGE    RES CHG    TOC STO    ABV TOC    OUTFLOW    INFLOW    FNF    PPT INC    TEMP MN    TEMP MX    WINDLEN    EVP PAN   
 FEET   AF   AF   AF   AF   CFS   CFS   CFS   INCHES   DEG F   DEG F   MILES   INCHES  
01/29/2015 608.71 26002 136 13136 12866 11 81 81 0.00 10 19 69 0.07
01/30/2015 608.88 26131 129 13250 12881 11 78 78 0.00 10 18 52 0.06
01/31/2015 609.05 26261 130 13364 12897 11 79 79 0.00 10 20 85 0.09
02/01/2015 609.19 26368 107 13477 12891 14 71 71 0.00 8 24 90 0.12
02/02/2015 609.32 26467 99 13591 12876 22 74 74 0.00 8 21 98 0.10
02/03/2015 609.44 26560 93 13705 12855 21 70 70 2.09 8 22 0 0.11
02/04/2015 609.54 26637 77 13818 12819 21 64 64 3.08 9 31 5710 0.20
02/05/2015 609.64 26714 77 13932 12782 21 64 64 0.00 11 30 92 0.18
02/06/2015 609.78 26822 108 14045 12777 17 75 75 0.00 14 30 109 0.17
02/07/2015 611.86 28466 1644 12734 15732 11 841 841 0.00 13 17 131 0.04
02/08/2015 614.49 30640 2174 12543 18097 11 1110 1110 0.00 13 24 120 0.11
02/09/2015 616.81 32647 2007 12211 20436 8 1023 1023 0.00 12 22 70 0.11
02/10/2015 618.04 33744 1097 12523 21221 7 562 562 0.00 8 21 62 0.09
02/11/2015 618.86 34492 -- 12784 -- 7 387 387 0.00 8 23 97 0.12
02/12/2015 619.61 35179 -- 13081 22098 7 357 357 0.00 9 25 10 0.13
02/13/2015 620.21 35737 558 13359 22378 7 293 293 0.00 10 28 99 0.16
02/14/2015 620.78 36272 535 13671 22601 7 281 281 0.00 10 28 100 0.16
02/15/2015 621.27 36737 465 13956 22781 7 245 245 0.00 11 27 98 0.14
02/16/2015 621.75 37195 458 14262 22933 7 242 242 0.00 11 28 94 0.15
02/17/2015 622.22 37648 453 14562 23086 7 240 240 0.00 11 28 93 0.15
02/18/2015 622.60 38016 368 14842 23174 10 199 199 0.00 7 21 79 0.09
02/19/2015 623.03 38435 419 15136 23299 13 228 228 0.00 9 24 93 0.13
02/20/2015 623.40 38798 363 15403 23395 13 198 198 0.00 7 17 86 0.09
02/21/2015 623.76 39153 355 15699 -- -- -- 194 -- -- -- -- --
02/22/2015 624.16 39551 398 15426 24125 14 215 215 0.00 9 13 61 0.03
02/23/2015 624.73 40121 570 14530 25591 14 305 305 0.00 8 19 114 0.09
02/24/2015 625.20 40594 473 14617 25977 11 253 253 0.00 4 20 82 0.12
02/25/2015 625.65 41051 -- 14814 26237 7 241 -- 0.00 7 22 93 0.13
02/26/2015 626.14 41552 501 15132 26420 7 263 -- 0.00 8 21 83 0.13
02/27/2015 626.59 42015 463 15455 26560 6 243 -- 0.00 9 22 85 0.12
02/28/2015 -- -- -- -- -- -- -- -- -- -- -- -- --

Later | Latest

Warning! This data is preliminary and subject to revision.

Show TRM Map | Plot TRM Data | 1 Month TRM Data | Real-Time TRM Data | TRM Info